createdAt,value
2018-10-17T11:01:10.495Z,99938.78
2018-10-17T11:03:39.465Z,99939.85
2018-10-17T11:06:08.380Z,99935.22
2018-10-17T11:08:37.371Z,99939.94
2018-10-17T11:11:06.655Z,99935.25
2018-10-17T11:13:35.856Z,99931.09
2018-10-17T11:16:04.849Z,99926.43
2018-10-17T11:18:33.733Z,99934.36
2018-10-17T11:21:02.954Z,99928.98
2018-10-17T11:23:32.132Z,99927.16
2018-10-17T11:26:01.077Z,99931.17
2018-10-17T11:28:29.989Z,99925.19
2018-10-17T11:30:59.412Z,99921.75
2018-10-17T11:33:28.557Z,99914.61
2018-10-17T11:35:57.633Z,99915.07
2018-10-17T11:38:26.634Z,99905.59
2018-10-17T11:40:55.568Z,99915.40
2018-10-17T11:43:24.552Z,99909.95
2018-10-17T11:45:53.596Z,99902.00
2018-10-17T11:48:22.463Z,99905.31
2018-10-17T11:50:51.308Z,99901.13
2018-10-17T11:53:20.202Z,99897.14
2018-10-17T11:55:49.127Z,99891.06
2018-10-17T11:58:18.076Z,99890.15
2018-10-17T12:00:47.270Z,99878.02
2018-10-17T12:03:16.162Z,99888.84
2018-10-17T12:05:45.256Z,99887.88
2018-10-17T12:08:14.172Z,99874.20
2018-10-17T12:10:43.296Z,99884.58
2018-10-17T12:13:12.440Z,99877.28
2018-10-17T12:15:43.263Z,99880.16
2018-10-17T12:18:12.780Z,99888.21
2018-10-17T12:20:41.897Z,99883.94
2018-10-17T12:23:11.203Z,99886.66
2018-10-17T12:25:40.180Z,99886.05
2018-10-17T12:28:09.353Z,99881.26
2018-10-17T12:30:41.598Z,99880.59
2018-10-17T12:33:10.934Z,99882.61
2018-10-17T12:35:41.035Z,99885.02
2018-10-17T12:38:10.546Z,99889.73
2018-10-17T12:40:39.745Z,99887.55
2018-10-17T12:43:08.739Z,99886.87
2018-10-17T12:45:37.952Z,99883.91
2018-10-17T12:48:07.097Z,99880.56
2018-10-17T12:50:37.132Z,99879.91
2018-10-17T12:53:07.263Z,99885.95
2018-10-17T12:55:35.982Z,99874.86
2018-10-17T12:58:05.136Z,99881.60
2018-10-17T13:00:35.465Z,99879.00
2018-10-17T13:03:06.927Z,99874.80
2018-10-17T13:05:37.089Z,99870.00
2018-10-17T13:08:06.388Z,99879.83
2018-10-17T13:10:36.456Z,99884.25
2018-10-17T13:13:05.723Z,99889.28
2018-10-17T13:15:35.056Z,99897.50
2018-10-17T13:18:04.132Z,99887.39
2018-10-17T13:20:33.059Z,99895.11
2018-10-17T13:23:02.366Z,99890.53
2018-10-17T13:25:31.771Z,99884.10
2018-10-17T13:28:00.765Z,99880.48
2018-10-17T13:30:29.772Z,99882.47
2018-10-17T13:32:58.829Z,99877.30
2018-10-17T13:35:27.871Z,99871.66
2018-10-17T13:37:56.878Z,99876.89
2018-10-17T13:40:26.113Z,99874.75
2018-10-17T13:42:55.213Z,99871.86
2018-10-17T13:45:24.194Z,99866.70
2018-10-17T13:47:53.290Z,99874.97
2018-10-17T13:50:22.540Z,99869.08
2018-10-17T13:52:51.503Z,99867.55
2018-10-17T13:55:20.639Z,99862.61
2018-10-17T13:57:49.769Z,99862.53
2018-10-17T14:00:18.797Z,99857.07
2018-10-17T14:09:33.045Z,99843.09
2018-10-17T14:12:02.067Z,99848.55
2018-10-17T14:14:31.028Z,99854.61
2018-10-17T14:17:00.525Z,99851.15
2018-10-17T14:19:29.519Z,99843.70
2018-10-17T14:21:58.540Z,99846.14
2018-10-17T14:24:27.806Z,99843.84
2018-10-17T14:26:56.871Z,99841.05
2018-10-17T14:29:26.883Z,99838.72
2018-10-17T14:31:56.177Z,99831.80
2018-10-17T14:34:25.180Z,99836.84
2018-10-17T14:36:54.134Z,99834.98
2018-10-17T14:39:23.466Z,99834.08
2018-10-17T14:41:52.409Z,99836.65
2018-10-17T14:44:21.289Z,99840.13
2018-10-17T14:46:50.666Z,99831.66
2018-10-17T14:49:19.583Z,99836.59
2018-10-17T14:51:48.532Z,99833.42
2018-10-17T14:54:17.965Z,99839.38
2018-10-17T14:56:46.873Z,99836.39
2018-10-17T14:59:15.894Z,99843.67
2018-10-17T15:01:45.032Z,99844.43
2018-10-17T15:04:14.200Z,99843.58
2018-10-17T15:06:43.445Z,99833.46
2018-10-17T15:09:12.690Z,99837.26
2018-10-17T15:11:41.658Z,99833.15
2018-10-17T15:14:10.604Z,99836.67
2018-10-17T15:16:41.991Z,99834.63
2018-10-17T15:19:11.051Z,99828.66
2018-10-17T15:21:40.116Z,99831.27
2018-10-17T15:24:09.554Z,99831.17
2018-10-17T15:26:38.560Z,99827.66
2018-10-17T15:29:07.568Z,99821.95
2018-10-17T15:31:36.730Z,99826.94
2018-10-17T15:34:05.914Z,99822.47
2018-10-17T15:36:34.911Z,99821.72
2018-10-17T15:39:08.241Z,99822.83
2018-10-17T15:41:37.382Z,99822.48
2018-10-17T15:44:07.399Z,99818.01
2018-10-17T15:46:36.386Z,99824.20
2018-10-17T15:49:07.811Z,99826.92
2018-10-17T15:51:36.897Z,99827.41
2018-10-17T15:54:05.945Z,99831.67
2018-10-17T15:56:35.104Z,99834.61
2018-10-17T15:59:04.047Z,99827.92
2018-10-17T16:01:33.196Z,99831.31
2018-10-17T16:04:02.371Z,99834.50
2018-10-17T16:06:31.395Z,99837.41
2018-10-17T16:09:00.519Z,99827.91
2018-10-17T16:11:29.829Z,99839.00
2018-10-17T16:13:58.986Z,99840.78
2018-10-17T16:16:27.987Z,99833.76
2018-10-17T16:18:57.102Z,99840.20
2018-10-17T16:22:55.370Z,99842.76
2018-10-17T16:25:24.945Z,99842.39
2018-10-17T16:27:54.126Z,99845.05
2018-10-17T16:30:24.792Z,99847.13
2018-10-17T16:32:54.158Z,99848.58
2018-10-17T16:35:23.069Z,99846.40
2018-10-17T16:37:52.478Z,99850.41
2018-10-17T16:40:21.707Z,99850.25
2018-10-17T16:42:50.830Z,99844.80
2018-10-17T16:45:27.878Z,99842.83
2018-10-17T16:47:58.036Z,99846.96
2018-10-17T16:50:27.633Z,99853.52
2018-10-17T16:52:56.973Z,99853.03
2018-10-17T16:55:26.572Z,99850.97
2018-10-17T16:57:56.383Z,99854.63
2018-10-17T17:00:25.768Z,99854.53
2018-10-17T17:02:55.080Z,99851.23
2018-10-17T17:05:24.116Z,99851.60
2018-10-17T17:07:53.173Z,99853.37
2018-10-17T17:10:22.281Z,99853.86
2018-10-17T17:12:51.400Z,99854.83
2018-10-17T17:15:20.411Z,99850.45
2018-10-17T17:17:49.438Z,99851.21
2018-10-17T17:20:18.804Z,99855.55
2018-10-17T17:22:48.049Z,99857.84
2018-10-17T17:25:16.878Z,99851.25
2018-10-17T17:27:46.095Z,99858.66
2018-10-17T17:30:17.158Z,99854.83
2018-10-17T17:32:47.034Z,99851.19
2018-10-17T17:35:16.077Z,99858.95
2018-10-17T17:37:45.039Z,99863.75
2018-10-17T17:40:15.019Z,99861.89
2018-10-17T17:42:44.024Z,99859.23
2018-10-17T17:45:13.012Z,99858.38
2018-10-17T17:47:42.610Z,99865.05
2018-10-17T17:50:11.969Z,99864.64
2018-10-17T17:52:41.056Z,99864.52
2018-10-17T17:55:10.600Z,99859.02
2018-10-17T17:57:39.795Z,99857.31
2018-10-17T18:00:09.066Z,99860.72
2018-10-17T18:02:38.109Z,99867.09
2018-10-17T18:05:07.991Z,99867.41
2018-10-17T18:07:37.172Z,99864.25
2018-10-17T18:10:06.956Z,99870.09
2018-10-17T18:12:36.163Z,99871.42
2018-10-17T18:15:05.723Z,99878.27
2018-10-17T18:17:35.192Z,99874.06
2018-10-17T18:20:04.158Z,99876.95
2018-10-17T18:22:33.159Z,99883.73
2018-10-17T18:25:02.288Z,99887.53
2018-10-17T18:27:31.377Z,99890.42
2018-10-17T18:30:01.370Z,99894.80
2018-10-17T18:32:30.509Z,99894.11
2018-10-17T18:34:59.622Z,99894.20
2018-10-17T18:37:28.632Z,99893.34
2018-10-17T18:39:58.156Z,99898.56
2018-10-17T18:42:27.157Z,99902.56
2018-10-17T18:44:56.097Z,99905.34
2018-10-17T18:47:25.501Z,99912.46
2018-10-17T18:51:24.033Z,99911.13
2018-10-17T18:53:53.253Z,99918.97
2018-10-17T18:56:22.151Z,99919.92
2018-10-17T18:58:51.347Z,99913.38
2018-10-17T19:01:20.328Z,99921.75
2018-10-17T19:03:49.439Z,99930.27
2018-10-17T19:06:18.597Z,99926.59
2018-10-17T19:08:47.970Z,99936.33
2018-10-17T19:11:16.958Z,99938.23
2018-10-17T19:13:46.041Z,99936.80
2018-10-17T19:16:15.517Z,99937.45
2018-10-17T19:18:44.488Z,99943.56
2018-10-17T19:21:13.674Z,99949.39
2018-10-17T19:23:43.401Z,99950.14
2018-10-17T19:26:12.502Z,99948.80
2018-10-17T19:28:41.596Z,99961.05
2018-10-17T19:31:10.952Z,99961.61
2018-10-17T19:33:40.046Z,99956.55
2018-10-17T19:36:09.071Z,99964.61
2018-10-17T19:38:38.507Z,99963.10
2018-10-17T19:41:07.519Z,99969.06
2018-10-17T19:43:36.813Z,99965.87
2018-10-17T19:46:06.310Z,99966.84
2018-10-17T19:48:35.621Z,99961.80
2018-10-17T19:51:04.952Z,99969.60
2018-10-17T19:53:34.256Z,99970.14
2018-10-17T19:56:03.544Z,99978.44
2018-10-17T19:58:32.648Z,99974.62
2018-10-17T20:01:01.626Z,99970.98
2018-10-17T20:03:30.905Z,99971.09
2018-10-17T20:05:59.815Z,99967.84
2018-10-17T20:08:28.911Z,99971.57
2018-10-17T20:10:58.098Z,99964.44
2018-10-17T20:13:27.213Z,99970.52
2018-10-17T20:15:56.200Z,99966.83
2018-10-17T20:18:25.505Z,99972.52
2018-10-17T20:20:54.626Z,99973.00
2018-10-17T20:23:23.880Z,99970.03
2018-10-17T20:25:53.038Z,99967.09
2018-10-17T20:28:22.032Z,99966.22
2018-10-17T20:30:51.014Z,99966.05
2018-10-17T20:33:20.079Z,99982.00
2018-10-17T20:35:49.344Z,99974.81
2018-10-17T20:38:18.776Z,99977.94
2018-10-17T20:40:47.949Z,99979.27
2018-10-17T20:43:16.988Z,99977.36
2018-10-17T20:45:46.483Z,99978.61
2018-10-17T20:48:15.433Z,99970.47
2018-10-17T20:50:44.539Z,99966.67
2018-10-17T20:53:13.866Z,99968.86
2018-10-17T20:55:42.857Z,99969.61
2018-10-17T20:58:11.859Z,99965.91
2018-10-17T21:00:41.047Z,99957.27
2018-10-17T21:03:09.936Z,99961.05
2018-10-17T21:05:38.881Z,99960.50
2018-10-17T21:08:08.083Z,99961.45
2018-10-17T21:10:37.012Z,99963.70
2018-10-17T21:13:05.988Z,99975.37
2018-10-17T21:15:35.642Z,99972.23
2018-10-17T21:18:04.950Z,99973.19
2018-10-17T21:20:34.153Z,99968.39
2018-10-17T21:23:03.165Z,99957.58
2018-10-17T21:25:32.232Z,99965.66
2018-10-17T21:28:01.271Z,99957.51
2018-10-17T21:30:30.561Z,99951.72
2018-10-17T21:32:59.629Z,99950.68
2018-10-17T21:35:28.684Z,99952.25
2018-10-17T21:37:58.057Z,99953.87
2018-10-17T21:40:26.865Z,99958.30
2018-10-17T21:42:55.849Z,99956.22
2018-10-17T21:45:24.661Z,99954.89
2018-10-17T21:47:53.634Z,99952.20
2018-10-17T21:50:22.728Z,99955.84
2018-10-17T21:52:52.158Z,99955.55
2018-10-17T21:55:21.207Z,99956.98
2018-10-17T21:57:50.339Z,99954.95
2018-10-17T22:00:20.085Z,99946.36
2018-10-17T22:02:48.997Z,99947.67
2018-10-17T22:05:17.944Z,99945.72
2018-10-17T22:07:47.013Z,99942.77
2018-10-17T22:10:15.996Z,99942.10
2018-10-17T22:12:45.035Z,99936.81
2018-10-17T22:15:14.242Z,99931.78
2018-10-17T22:17:43.220Z,99933.86
2018-10-17T22:20:12.292Z,99936.52
2018-10-17T22:22:41.429Z,99937.84
2018-10-17T22:25:10.562Z,99933.41
2018-10-17T22:27:39.546Z,99923.07
2018-10-17T22:30:09.153Z,99925.80
2018-10-17T22:32:38.096Z,99923.49
2018-10-17T22:35:07.069Z,99924.89
2018-10-17T22:37:36.484Z,99922.16
2018-10-17T22:40:05.540Z,99919.27
2018-10-17T22:42:34.524Z,99915.09
2018-10-17T22:45:03.610Z,99919.64
2018-10-17T22:47:32.692Z,99919.63
2018-10-17T22:50:01.845Z,99906.54
2018-10-17T22:52:30.970Z,99908.81
2018-10-17T22:54:59.988Z,99903.70
2018-10-17T22:57:29.026Z,99901.52
2018-10-17T22:59:58.063Z,99901.98
2018-10-17T23:02:27.098Z,99906.05
2018-10-17T23:04:56.280Z,99906.91
2018-10-17T23:07:25.733Z,99905.68
2018-10-17T23:09:54.727Z,99904.98
2018-10-17T23:12:23.904Z,99906.12
2018-10-17T23:14:53.129Z,99904.33
2018-10-17T23:17:22.261Z,99908.97
2018-10-17T23:19:51.323Z,99908.40
2018-10-17T23:22:20.490Z,99905.74
2018-10-17T23:24:49.456Z,99907.45
2018-10-17T23:27:18.475Z,99902.41
2018-10-17T23:29:47.428Z,99903.20
2018-10-17T23:32:16.614Z,99910.11
2018-10-17T23:34:45.772Z,99904.52
2018-10-17T23:37:14.884Z,99909.89
2018-10-17T23:39:43.787Z,99903.66
2018-10-17T23:42:12.758Z,99902.08
2018-10-17T23:44:42.136Z,99904.16
2018-10-17T23:47:11.076Z,99901.31
2018-10-17T23:49:40.011Z,99902.16
2018-10-17T23:52:09.187Z,99890.31
2018-10-17T23:54:38.120Z,99891.28
2018-10-17T23:57:07.094Z,99887.36
2018-10-17T23:59:36.680Z,99883.38
